createdAt,value
2022-11-16T00:01:14.875Z,3.00
2022-11-16T00:03:45.482Z,2.90
2022-11-16T00:06:15.001Z,2.90
2022-11-16T00:09:07.349Z,2.80
2022-11-16T00:11:36.196Z,2.80
2022-11-16T00:14:04.940Z,2.87
2022-11-16T00:16:35.105Z,3.43
2022-11-16T00:19:05.826Z,3.50
2022-11-16T00:21:34.796Z,2.70
2022-11-16T00:24:03.256Z,2.90
2022-11-16T00:26:33.659Z,2.63
2022-11-16T00:29:03.889Z,2.70
2022-11-16T00:31:31.931Z,2.90
2022-11-16T00:34:01.517Z,2.80
2022-11-16T00:36:29.742Z,3.30
2022-11-16T00:39:00.214Z,3.00
2022-11-16T00:41:28.347Z,3.20
2022-11-16T00:43:59.037Z,3.27
2022-11-16T00:46:27.149Z,3.53
2022-11-16T00:48:57.774Z,3.17
2022-11-16T00:51:27.404Z,3.50
2022-11-16T00:53:55.610Z,3.17
2022-11-16T00:56:24.681Z,2.97
2022-11-16T00:58:52.804Z,3.37
2022-11-16T01:01:20.983Z,3.30
2022-11-16T01:03:51.991Z,3.53
2022-11-16T01:06:23.586Z,3.27
2022-11-16T01:08:53.042Z,3.47
2022-11-16T01:11:38.884Z,2.80
2022-11-16T01:14:09.050Z,3.63
2022-11-16T01:16:39.435Z,3.13
2022-11-16T01:19:08.444Z,3.47
2022-11-16T01:21:36.756Z,3.57
2022-11-16T01:24:07.056Z,3.77
2022-11-16T01:26:35.117Z,3.63
2022-11-16T01:29:03.185Z,3.90
2022-11-16T01:31:35.665Z,3.43
2022-11-16T01:34:06.725Z,3.73
2022-11-16T01:36:37.204Z,3.50
2022-11-16T01:39:07.607Z,3.43
2022-11-16T01:41:45.571Z,3.63
2022-11-16T01:44:59.393Z,3.50
2022-11-16T01:47:28.092Z,3.80
2022-11-16T01:50:05.556Z,3.73
2022-11-16T01:52:38.470Z,3.70
2022-11-16T01:55:08.683Z,3.57
2022-11-16T01:57:48.619Z,3.97
2022-11-16T02:00:19.993Z,4.40
2022-11-16T02:03:04.928Z,3.60
2022-11-16T02:05:51.832Z,4.20
2022-11-16T02:08:53.828Z,4.47
2022-11-16T02:11:41.848Z,4.20
2022-11-16T02:14:20.578Z,4.40
2022-11-16T02:16:56.616Z,4.43
2022-11-16T02:20:01.205Z,3.83
2022-11-16T02:22:43.991Z,4.20
2022-11-16T02:25:18.616Z,4.27
2022-11-16T02:28:14.887Z,4.67
2022-11-16T02:30:50.131Z,4.03
2022-11-16T02:33:22.495Z,4.73
2022-11-16T02:35:53.258Z,4.67
2022-11-16T02:38:25.508Z,4.73
2022-11-16T02:41:02.776Z,4.83
2022-11-16T02:43:37.638Z,4.83
2022-11-16T02:46:13.704Z,4.63
2022-11-16T02:48:50.338Z,4.80
2022-11-16T02:51:21.998Z,5.43
2022-11-16T02:54:01.993Z,4.90
2022-11-16T02:56:31.351Z,5.33
2022-11-16T02:59:00.323Z,5.30
2022-11-16T03:01:39.185Z,4.90
2022-11-16T03:04:13.078Z,5.27
2022-11-16T03:06:47.178Z,5.90
2022-11-16T03:09:19.284Z,5.40
2022-11-16T03:12:01.031Z,5.50
2022-11-16T03:14:36.937Z,5.03
2022-11-16T03:17:10.076Z,5.43
2022-11-16T03:19:46.437Z,6.13
2022-11-16T03:22:18.435Z,5.43
2022-11-16T03:24:46.782Z,5.60
2022-11-16T03:27:25.567Z,5.83
2022-11-16T03:30:03.502Z,5.27
2022-11-16T03:32:40.136Z,5.20
2022-11-16T03:35:13.773Z,5.40
2022-11-16T03:37:45.857Z,5.80
2022-11-16T03:40:16.766Z,5.97
2022-11-16T03:42:46.258Z,5.70
2022-11-16T03:45:15.183Z,5.90
2022-11-16T03:47:44.799Z,5.70
2022-11-16T03:50:13.714Z,6.17
2022-11-16T03:52:42.386Z,5.90
2022-11-16T03:55:10.801Z,5.70
2022-11-16T03:57:38.922Z,5.93
2022-11-16T04:00:08.516Z,6.37
2022-11-16T04:02:44.924Z,5.30
2022-11-16T04:05:40.190Z,6.30
2022-11-16T04:08:34.220Z,5.73
2022-11-16T04:11:20.541Z,5.83
2022-11-16T04:14:09.284Z,6.13
2022-11-16T04:16:57.585Z,6.27
2022-11-16T04:19:44.567Z,5.67
2022-11-16T04:22:35.930Z,5.30
2022-11-16T04:25:09.897Z,6.33
2022-11-16T04:27:55.208Z,6.53
2022-11-16T04:30:25.944Z,6.70
2022-11-16T04:33:17.543Z,5.70
2022-11-16T04:36:06.944Z,6.37
2022-11-16T04:38:37.250Z,6.37
2022-11-16T04:41:05.544Z,5.80
2022-11-16T04:43:32.645Z,6.23
2022-11-16T04:46:20.594Z,6.47
2022-11-16T04:48:48.699Z,5.73
2022-11-16T04:51:18.415Z,7.10
2022-11-16T04:53:46.581Z,6.23
2022-11-16T04:56:20.504Z,6.57
2022-11-16T04:58:48.805Z,6.17
2022-11-16T05:01:17.227Z,6.13
2022-11-16T05:03:45.521Z,5.97
2022-11-16T05:06:14.357Z,7.07
2022-11-16T05:08:44.018Z,6.97
2022-11-16T05:11:12.255Z,7.00
2022-11-16T05:13:40.927Z,6.23
2022-11-16T05:16:09.802Z,6.57
2022-11-16T05:18:40.586Z,7.20
2022-11-16T05:21:09.076Z,6.90
2022-11-16T05:23:57.096Z,6.10
2022-11-16T05:26:30.912Z,6.53
2022-11-16T05:28:59.366Z,6.77
2022-11-16T05:31:27.869Z,7.20
2022-11-16T05:33:58.496Z,6.90
2022-11-16T05:36:29.254Z,7.03
2022-11-16T05:38:57.436Z,7.17
2022-11-16T05:41:30.282Z,6.70
2022-11-16T05:44:00.055Z,7.00
2022-11-16T05:46:28.308Z,7.07
2022-11-16T05:49:00.606Z,7.53
2022-11-16T05:51:28.902Z,7.93
2022-11-16T05:54:00.118Z,6.90
2022-11-16T05:56:32.784Z,7.73
2022-11-16T05:59:01.326Z,6.80
2022-11-16T06:01:31.962Z,6.83
2022-11-16T06:04:04.454Z,8.00
2022-11-16T06:06:34.301Z,6.97
2022-11-16T06:09:02.492Z,7.17
2022-11-16T06:11:36.158Z,6.57
2022-11-16T06:14:06.013Z,6.50
2022-11-16T06:16:37.732Z,6.37
2022-11-16T06:19:09.063Z,5.70
2022-11-16T06:21:37.752Z,6.00
2022-11-16T06:24:11.482Z,6.07
2022-11-16T06:26:41.002Z,7.67
2022-11-16T06:29:11.510Z,7.40
2022-11-16T06:31:39.667Z,7.23
2022-11-16T06:34:07.877Z,8.13
2022-11-16T06:36:36.072Z,7.03
2022-11-16T06:39:06.497Z,6.10
2022-11-16T06:41:41.356Z,7.53
2022-11-16T06:44:12.843Z,7.63
2022-11-16T06:46:49.013Z,7.03
2022-11-16T06:49:17.174Z,7.40
2022-11-16T06:51:46.191Z,6.90
2022-11-16T06:54:14.472Z,6.70
2022-11-16T06:56:42.790Z,7.47
2022-11-16T06:59:14.444Z,6.80
2022-11-16T07:01:44.094Z,7.83
2022-11-16T07:04:16.030Z,6.90
2022-11-16T07:06:50.775Z,8.37
2022-11-16T07:09:19.718Z,6.77
2022-11-16T07:11:50.218Z,6.73
2022-11-16T07:14:21.284Z,6.60
2022-11-16T07:16:53.673Z,7.00
2022-11-16T07:19:24.849Z,6.87
2022-11-16T07:21:53.575Z,6.50
2022-11-16T07:24:21.756Z,7.50
2022-11-16T07:26:49.878Z,7.47
2022-11-16T07:29:23.003Z,7.57
2022-11-16T07:32:09.631Z,6.77
2022-11-16T07:35:01.154Z,6.33
2022-11-16T07:37:29.945Z,6.53
2022-11-16T07:40:00.665Z,6.27
2022-11-16T07:42:29.837Z,6.53
2022-11-16T07:45:22.225Z,6.57
2022-11-16T07:47:55.128Z,6.63
2022-11-16T07:50:52.254Z,6.93
2022-11-16T07:53:21.635Z,7.30
2022-11-16T07:55:54.418Z,6.37
2022-11-16T07:58:24.421Z,6.60
2022-11-16T08:00:56.380Z,6.00
2022-11-16T08:03:26.710Z,6.43
2022-11-16T08:06:01.001Z,5.57
2022-11-16T08:08:30.034Z,6.27
2022-11-16T08:11:01.019Z,5.93
2022-11-16T08:13:31.927Z,4.87
2022-11-16T08:16:07.815Z,5.13
2022-11-16T08:18:36.760Z,5.63
2022-11-16T08:21:06.347Z,5.70
2022-11-16T08:23:37.549Z,5.77
2022-11-16T08:26:07.962Z,5.20
2022-11-16T08:28:36.936Z,6.00
2022-11-16T08:31:11.919Z,4.80
2022-11-16T08:33:44.163Z,5.23
2022-11-16T08:36:17.469Z,5.40
2022-11-16T08:38:51.214Z,6.03
2022-11-16T08:41:21.815Z,5.70
2022-11-16T08:43:53.370Z,4.80
2022-11-16T08:46:27.073Z,5.03
2022-11-16T08:49:03.689Z,4.70
2022-11-16T08:51:31.773Z,5.57
2022-11-16T08:54:06.288Z,5.10
2022-11-16T08:56:37.149Z,5.90
2022-11-16T08:59:06.364Z,5.63
2022-11-16T09:01:35.932Z,5.20
2022-11-16T09:04:04.124Z,4.90
2022-11-16T09:06:32.659Z,5.00
2022-11-16T09:09:03.276Z,5.60
2022-11-16T09:11:31.454Z,4.90
2022-11-16T09:14:01.866Z,5.07
2022-11-16T09:16:30.139Z,5.20
2022-11-16T09:19:02.697Z,5.57
2022-11-16T09:21:31.391Z,5.70
2022-11-16T09:23:59.688Z,5.57
2022-11-16T09:26:30.245Z,5.80
2022-11-16T09:28:59.753Z,6.47
2022-11-16T09:31:28.603Z,5.47
2022-11-16T09:33:58.341Z,5.53
2022-11-16T09:36:28.735Z,6.50
2022-11-16T09:42:08.256Z,5.63
2022-11-16T09:45:00.655Z,6.30
2022-11-16T09:47:44.211Z,5.90
2022-11-16T09:50:25.553Z,6.03
2022-11-16T09:52:58.832Z,6.07
2022-11-16T09:55:33.474Z,6.17
2022-11-16T09:58:04.856Z,8.43
2022-11-16T10:00:37.884Z,7.53
2022-11-16T10:03:12.177Z,6.97
2022-11-16T10:05:45.969Z,6.60
2022-11-16T10:08:22.570Z,6.67
2022-11-16T10:10:59.051Z,6.50
2022-11-16T10:13:46.120Z,6.93
2022-11-16T10:16:20.364Z,6.80
2022-11-16T10:18:57.674Z,6.60
2022-11-16T10:21:37.275Z,6.40
2022-11-16T10:24:31.732Z,6.80
2022-11-16T10:27:08.944Z,5.50
2022-11-16T10:29:48.720Z,6.43
2022-11-16T10:32:28.103Z,6.20
2022-11-16T10:35:01.361Z,5.70
2022-11-16T10:37:32.362Z,5.60
2022-11-16T10:40:16.680Z,6.63
2022-11-16T10:42:48.005Z,6.30
2022-11-16T10:45:20.868Z,6.73
2022-11-16T10:47:57.062Z,5.93
2022-11-16T10:50:38.614Z,6.90
2022-11-16T10:53:06.990Z,7.93
2022-11-16T10:55:38.795Z,8.10
2022-11-16T10:58:09.119Z,9.70
2022-11-16T11:00:48.705Z,10.30
2022-11-16T11:03:30.114Z,10.37
2022-11-16T11:06:00.876Z,11.43
2022-11-16T11:08:31.498Z,11.57
2022-11-16T11:11:23.352Z,10.87
2022-11-16T11:14:06.034Z,9.90
2022-11-16T11:16:34.202Z,8.57
2022-11-16T11:19:24.858Z,7.10
2022-11-16T11:21:57.027Z,6.57
2022-11-16T11:24:45.305Z,7.70
2022-11-16T11:27:22.351Z,8.47
2022-11-16T11:29:55.565Z,7.37
2022-11-16T11:32:24.950Z,7.03
2022-11-16T11:34:54.986Z,6.57
2022-11-16T11:37:26.402Z,4.93
2022-11-16T11:40:18.276Z,3.70
2022-11-16T11:42:58.792Z,4.33
2022-11-16T11:45:37.493Z,4.10
2022-11-16T11:48:22.371Z,4.37
2022-11-16T11:50:54.238Z,4.10
2022-11-16T11:53:41.949Z,4.23
2022-11-16T11:56:12.286Z,4.33
2022-11-16T11:58:42.673Z,3.50
2022-11-16T12:01:28.452Z,2.23
2022-11-16T12:04:35.717Z,2.53
2022-11-16T12:07:17.167Z,2.70
2022-11-16T12:09:54.509Z,2.17
2022-11-16T12:12:37.814Z,2.37
2022-11-16T12:15:37.047Z,2.10
2022-11-16T12:18:19.004Z,1.70
2022-11-16T12:20:58.940Z,1.70
2022-11-16T12:24:06.813Z,2.67
2022-11-16T12:26:46.623Z,1.60
2022-11-16T12:29:26.766Z,2.10
2022-11-16T12:32:15.419Z,2.27
2022-11-16T12:34:57.452Z,1.90
2022-11-16T12:37:32.777Z,2.30
2022-11-16T12:40:28.553Z,2.23
2022-11-16T12:43:03.099Z,2.03
2022-11-16T12:45:52.792Z,2.00
2022-11-16T12:48:57.394Z,1.97
2022-11-16T12:51:38.201Z,1.80
2022-11-16T12:54:25.495Z,1.80
2022-11-16T12:57:03.559Z,1.87
2022-11-16T12:59:58.517Z,1.97
2022-11-16T13:02:42.239Z,1.50
2022-11-16T13:05:18.061Z,2.10
2022-11-16T13:07:48.232Z,1.97
2022-11-16T13:10:21.005Z,1.57
2022-11-16T13:13:29.749Z,1.57
2022-11-16T13:15:53.503Z,2.13
2022-11-16T13:18:24.966Z,1.80
2022-11-16T13:21:01.537Z,2.40
2022-11-16T13:23:45.458Z,1.87
2022-11-16T13:26:21.384Z,2.03
2022-11-16T13:28:59.317Z,1.80
2022-11-16T13:31:33.922Z,2.03
2022-11-16T13:34:08.453Z,1.77
2022-11-16T13:36:45.165Z,1.43
2022-11-16T13:39:21.967Z,1.93
2022-11-16T13:41:52.867Z,1.30
2022-11-16T13:44:28.942Z,2.03
2022-11-16T13:47:04.207Z,1.50
2022-11-16T13:49:36.486Z,1.50
2022-11-16T13:52:22.521Z,1.03
2022-11-16T13:54:54.425Z,1.30
2022-11-16T13:57:26.781Z,0.87
2022-11-16T14:00:09.647Z,1.10
2022-11-16T14:02:41.448Z,1.50
2022-11-16T14:05:17.556Z,1.10
2022-11-16T14:07:49.832Z,0.93
2022-11-16T14:11:05.339Z,1.73
2022-11-16T14:13:40.960Z,1.37
2022-11-16T14:16:42.760Z,1.37
2022-11-16T14:19:44.258Z,0.90
2022-11-16T14:22:25.782Z,1.13
2022-11-16T14:25:02.556Z,1.10
2022-11-16T14:27:40.581Z,0.93
2022-11-16T14:30:18.600Z,1.00
2022-11-16T14:32:50.872Z,1.27
2022-11-16T14:35:29.400Z,1.20
2022-11-16T14:38:02.755Z,1.30
2022-11-16T14:40:36.564Z,1.20
2022-11-16T14:43:16.367Z,0.90
2022-11-16T14:45:49.218Z,1.03
2022-11-16T14:48:20.116Z,1.30
2022-11-16T14:50:59.968Z,1.20
2022-11-16T14:53:29.473Z,1.00
2022-11-16T14:56:11.846Z,1.03
2022-11-16T14:58:40.820Z,1.20
2022-11-16T15:01:14.939Z,1.00
2022-11-16T15:03:49.615Z,1.10
2022-11-16T15:06:18.043Z,1.27
2022-11-16T15:08:53.194Z,1.07
2022-11-16T15:11:48.203Z,1.07
2022-11-16T15:14:21.021Z,0.80
2022-11-16T15:16:53.204Z,1.10
2022-11-16T15:19:21.955Z,1.00
2022-11-16T15:21:54.715Z,1.03
2022-11-16T15:24:30.530Z,1.00
2022-11-16T15:27:11.865Z,1.20
2022-11-16T15:29:40.294Z,1.20
2022-11-16T15:32:14.152Z,0.90
2022-11-16T15:34:48.751Z,1.33
2022-11-16T15:37:28.543Z,1.00
2022-11-16T15:39:57.984Z,1.43
2022-11-16T15:42:28.762Z,0.90
2022-11-16T15:45:15.668Z,1.60
2022-11-16T15:47:46.498Z,0.93
2022-11-16T15:50:18.989Z,1.53
2022-11-16T15:52:50.425Z,1.40
2022-11-16T15:55:27.774Z,1.63
2022-11-16T15:58:02.268Z,1.10
2022-11-16T16:00:32.367Z,0.90
2022-11-16T16:03:08.947Z,1.07
2022-11-16T16:05:41.136Z,1.40
2022-11-16T16:08:27.012Z,1.17
2022-11-16T16:11:00.407Z,1.13
2022-11-16T16:13:32.957Z,1.47
2022-11-16T16:16:30.162Z,1.60
2022-11-16T16:19:06.503Z,1.93
2022-11-16T16:21:45.369Z,3.07
2022-11-16T16:24:38.059Z,2.93
2022-11-16T16:27:17.647Z,2.50
2022-11-16T16:29:50.850Z,3.23
2022-11-16T16:32:26.357Z,2.80
2022-11-16T16:34:57.862Z,2.63
2022-11-16T16:37:28.138Z,2.27
2022-11-16T16:39:58.981Z,1.93
2022-11-16T16:42:27.421Z,1.57
2022-11-16T16:44:59.697Z,1.67
2022-11-16T16:47:27.946Z,1.70
2022-11-16T16:49:58.498Z,1.27
2022-11-16T16:52:27.715Z,1.63
2022-11-16T16:54:55.823Z,1.47
2022-11-16T16:57:24.139Z,1.20
2022-11-16T16:59:52.205Z,1.30
2022-11-16T17:02:25.481Z,1.70
2022-11-16T17:04:53.676Z,1.87
2022-11-16T17:07:23.956Z,1.47
2022-11-16T17:09:52.121Z,2.20
2022-11-16T17:12:20.323Z,2.13
2022-11-16T17:14:51.720Z,2.13
2022-11-16T17:17:20.358Z,2.60
2022-11-16T17:19:49.941Z,1.50
2022-11-16T17:22:18.228Z,2.20
2022-11-16T17:24:46.513Z,2.07
2022-11-16T17:31:31.780Z,2.63
2022-11-16T17:34:01.972Z,3.33
2022-11-16T17:36:31.507Z,3.37
2022-11-16T17:38:59.754Z,2.43
2022-11-16T17:41:36.999Z,2.60
2022-11-16T17:44:07.831Z,2.30
2022-11-16T17:46:36.428Z,2.17
2022-11-16T17:49:04.615Z,2.13
2022-11-16T17:51:36.515Z,2.30
2022-11-16T17:54:04.796Z,1.90
2022-11-16T17:56:35.425Z,2.13
2022-11-16T17:59:03.594Z,2.30
2022-11-16T18:01:31.712Z,2.63
2022-11-16T18:04:03.538Z,2.43
2022-11-16T18:06:33.144Z,2.27
2022-11-16T18:09:03.074Z,2.30
2022-11-16T18:11:31.194Z,3.33
2022-11-16T18:14:01.501Z,2.53
2022-11-16T18:16:31.873Z,2.57
2022-11-16T18:19:03.622Z,2.50
2022-11-16T18:21:33.724Z,2.20
2022-11-16T18:24:03.191Z,2.27
2022-11-16T18:26:33.651Z,2.53
2022-11-16T18:29:01.843Z,2.20
2022-11-16T18:31:32.944Z,2.20
2022-11-16T18:34:03.590Z,2.17
2022-11-16T18:36:31.675Z,2.30
2022-11-16T18:39:03.213Z,2.50
2022-11-16T18:41:31.377Z,2.20
2022-11-16T18:44:00.825Z,2.83
2022-11-16T18:46:29.976Z,2.17
2022-11-16T18:48:58.471Z,2.37
2022-11-16T18:51:28.277Z,2.40
2022-11-16T18:53:58.782Z,2.70
2022-11-16T18:56:28.324Z,2.70
2022-11-16T18:58:56.485Z,2.70
2022-11-16T19:01:28.002Z,2.90
2022-11-16T19:03:58.369Z,2.03
2022-11-16T19:06:26.543Z,2.97
2022-11-16T19:08:59.700Z,2.70
2022-11-16T19:11:29.804Z,2.40
2022-11-16T19:14:00.488Z,2.40
2022-11-16T19:16:28.754Z,2.33
2022-11-16T19:18:59.202Z,2.60
2022-11-16T19:21:30.156Z,2.57
2022-11-16T19:23:58.824Z,2.60
2022-11-16T19:26:30.493Z,2.80
2022-11-16T19:29:04.098Z,2.90
2022-11-16T19:31:34.698Z,3.30
2022-11-16T19:34:05.562Z,3.13
2022-11-16T19:36:35.369Z,2.67
2022-11-16T19:39:04.325Z,3.17
2022-11-16T19:41:36.246Z,2.80
2022-11-16T19:44:04.323Z,3.80
2022-11-16T19:46:34.310Z,2.87
2022-11-16T19:49:02.896Z,3.10
2022-11-16T19:51:32.842Z,2.80
2022-11-16T19:54:03.942Z,3.07
2022-11-16T19:56:32.270Z,2.30
2022-11-16T19:59:02.128Z,2.80
2022-11-16T20:01:30.369Z,3.63
2022-11-16T20:04:03.415Z,2.67
2022-11-16T20:06:36.202Z,2.90
2022-11-16T20:09:08.831Z,2.70
2022-11-16T20:11:39.329Z,3.10
2022-11-16T20:14:10.305Z,2.33
2022-11-16T20:16:40.028Z,2.70
2022-11-16T20:19:09.361Z,2.97
2022-11-16T20:21:41.873Z,3.03
2022-11-16T20:24:13.647Z,3.13
2022-11-16T20:26:44.585Z,2.97
2022-11-16T20:29:15.020Z,3.10
2022-11-16T20:31:46.213Z,3.07
2022-11-16T20:34:16.227Z,3.23
2022-11-16T20:36:45.526Z,2.43
2022-11-16T20:39:15.711Z,2.87
2022-11-16T20:41:44.911Z,3.03
2022-11-16T20:44:18.270Z,2.73
2022-11-16T20:46:48.993Z,3.00
2022-11-16T20:49:17.331Z,3.20
2022-11-16T20:51:48.364Z,2.70
2022-11-16T20:54:19.258Z,2.70
2022-11-16T20:56:49.524Z,3.30
2022-11-16T20:59:19.511Z,2.27
2022-11-16T21:01:48.844Z,2.40
2022-11-16T21:04:17.497Z,2.40
2022-11-16T21:06:48.188Z,2.63
2022-11-16T21:09:22.724Z,2.40
2022-11-16T21:12:08.652Z,2.80
2022-11-16T21:14:40.357Z,2.53
2022-11-16T21:17:10.559Z,2.37
2022-11-16T21:19:38.717Z,2.60
2022-11-16T21:22:06.786Z,3.00
2022-11-16T21:24:34.950Z,2.60
2022-11-16T21:27:05.222Z,2.00
2022-11-16T21:29:35.415Z,2.00
2022-11-16T21:32:04.998Z,2.40
2022-11-16T21:34:38.793Z,2.23
2022-11-16T21:37:08.171Z,2.83
2022-11-16T21:39:36.310Z,2.23
2022-11-16T21:42:06.331Z,2.53
2022-11-16T21:44:41.895Z,2.40
2022-11-16T21:47:12.351Z,2.40
2022-11-16T21:50:08.316Z,2.37
2022-11-16T21:52:34.131Z,2.57
2022-11-16T21:55:02.310Z,2.30
2022-11-16T21:57:30.464Z,2.43
2022-11-16T21:59:58.673Z,1.90
2022-11-16T22:02:28.231Z,2.30
2022-11-16T22:05:28.492Z,2.23
2022-11-16T22:07:56.750Z,2.13
2022-11-16T22:10:24.878Z,2.83
2022-11-16T22:12:52.994Z,3.00
2022-11-16T22:15:23.343Z,2.53
2022-11-16T22:17:52.813Z,2.33
2022-11-16T22:20:23.357Z,2.37
2022-11-16T22:22:51.483Z,2.83
2022-11-16T22:25:19.733Z,2.13
2022-11-16T22:28:20.176Z,2.57
2022-11-16T22:30:39.060Z,3.13
2022-11-16T22:33:09.072Z,2.70
2022-11-16T22:35:39.519Z,2.70
2022-11-16T22:38:10.107Z,2.60
2022-11-16T22:40:40.253Z,2.93
2022-11-16T22:43:08.378Z,3.37
2022-11-16T22:45:36.491Z,2.70
2022-11-16T22:48:05.042Z,2.47
2022-11-16T22:50:34.652Z,2.53
2022-11-16T22:53:02.767Z,2.63
2022-11-16T22:55:31.101Z,2.23
2022-11-16T22:57:59.313Z,2.40
2022-11-16T23:00:29.599Z,2.63
2022-11-16T23:02:57.807Z,2.10
2022-11-16T23:05:26.121Z,2.40
2022-11-16T23:07:58.193Z,2.60
2022-11-16T23:10:26.259Z,2.53
2022-11-16T23:13:14.321Z,2.37
2022-11-16T23:15:51.173Z,3.03
2022-11-16T23:18:19.804Z,2.20
2022-11-16T23:21:07.585Z,2.27
2022-11-16T23:23:54.256Z,2.80
2022-11-16T23:26:41.586Z,2.40
2022-11-16T23:29:11.568Z,2.57
2022-11-16T23:31:39.881Z,2.53
2022-11-16T23:34:07.988Z,2.93
2022-11-16T23:36:36.121Z,3.23
2022-11-16T23:39:07.694Z,2.97
2022-11-16T23:41:53.398Z,2.50
2022-11-16T23:44:21.489Z,2.37
2022-11-16T23:46:51.646Z,2.80
2022-11-16T23:49:22.031Z,2.60
2022-11-16T23:51:50.043Z,2.73
2022-11-16T23:54:19.512Z,2.60
2022-11-16T23:56:47.700Z,2.90
2022-11-16T23:59:15.837Z,2.77
